Appomattox, Virginia
Current Conditions -  °F | °C
As of 7:55 AM on Wednesday 26 Nov 2014 (Local Time) from K0V4 Reporting Station
Overcast Overcast  
Wind Chill: 37°   Ceiling: 700
Heat Index: 44°   Visibility: 7mi
Dew Point: 43°   Wind: 12mph
Humidity: 97%   Direction: 50°NE
Pressure: 30.02"   Gusts: 16mph
Location:  37.36°N, 78.83°W
Report Text: K0V4 261255Z AUTO 05010G14KT 7SM BKN007 BKN012 OVC029 06/06 A3002 RMK AO1 P0012 T00640060
Loading
Personal Weather Stations






























Interactive Weather Map New forecast layout! Learn more

10-Day Weather Forecast

Advertisements
Track Severe Weather on mobile